Scroll down
FLIGHT INFORMATION
Alaska Airlines

ASA12

At Arrival Gate

KSEA
 KBOS
DATE: 2020-07-15
GATE:  -
GATE DEPARTURE: 21:10
TAKEOFF: 21:22
DATE: 2020-07-16
GATE:  -
LANDING: 02:04
GATE ARRIVAL: 02:09
FLIGHT DATA
Crew: 
Speed: 
463 kts
Altitude: 
35,021 ft
Stage Length: 
2,162.8 nm
Block Time: 
5 hrs
Flight Time: 
4.7 hrs
Fuel Used: 
29,583 lb
Cleared Route: KSEA NEZUG SEA ZADON ZELAK ZIRAN MLP GTF COKEE WILTN TTAIL SNARG RUBKI PEPLA SIKBO RAGIX MEDAV AHPAH GONZZ PONCT KBOS
TRACK DATA
50,000 ft 1,000 kts
AIRCRAFT INFO AND CUMULATIVE STATS
Aircraft Type: 
B739ERSSW
Registration: 
SELCAL: 
GHBQ
MSN/LN: 
36364 / 5937
Operator: 
Total Flights: 
7
Total Block Time: 
28.8 hrs
Total Flight Time: 
27 hrs
Total Fuel Time: 
168,896 lb
DATALINK LOG | Newest first | Current as of: 2020-12-02 21:48:43
LABEL SEQUENCE CONTENT Dn/Up
QD483902:09 8.3▼ Dn
QC433402:04▼ Dn
2U1506KBOS 150354Z 35004KT 10SM BKN016 OVC021 19/16 A3010 RMK AO2 SLP192 T01940161 $▲ Up
2S1505KBOS▼ Dn
QB154521:22▼ Dn
QA043421:10 38▼ Dn
A35636CLEARED TO KBOS VIA SEA ZADON ZELAK ZIRAN MLP J36 GTF COKEE WILTN Q140 TTAIL SNARG RUBKI Q140 AHPAH GONZZ PONCT JFUND2. SQUAWK .▲ Up
2U5633KSEA 150053Z VRB04KT 10SM SCT250 27/08 A3014 RMK AO2 SLP211 T02670083▲ Up
2S5633KSEA▼ Dn
Q05525[LINK ACK]▲ Up
Q05525[LINK TEST]▼ Dn


AIRCRAFT HISTORY
FLIGHT DATE FLIGHT NO. ORIGIN DESTINATION CLEARED ROUTE BLOCK TIME FLIGHT TIME FUEL USED PILOT
2020-11-19ASA3890KAUS KMSO KAUS WLMRT ELOEL FORSS ABI TXO HBU EKR OCS DLN ROKNY RW303.5 hrs3.2 hrs20,005 lbPete L.
2020-10-29ASA5890KGPI KAUS KGPI HUCKL ANGIL GRCON CHOTE GTF BIL BFF GLD GCK MMB MQP WINDU SSOLO GABOO SEWZY VADRR HHOOF MMARE SMRFF SMRFF RW35L3.3 hrs3 hrs18,046 lbPete L.
2020-10-28ASA5165PAJN KGPI PAJN LVD RIBIT YYD NAAPP CASSL YWL YNY YXC CFRBZ OLIBY VAILL KGPI2.6 hrs2.2 hrs13,345 lbPete L.
2020-10-27ASA6128KMSO PAJN KMSO DIDLY ORONE MLP GEG TWISP CFDDH YVR YZT DUGGS CFSTF ANN LVD HOODS SSR RW083.4 hrs3.1 hrs18,727 lbPete L.
2020-09-05ASA5891KBOS KMSO KBOS NHANT HURBE STAYC SHAAN HYLND MSS YYB YXZ YQT GFK ISN LWT PIXXI RW305.4 hrs5.1 hrs32,775 lbPete L.
2020-07-15ASA12KSEA KBOS KSEA NEZUG SEA ZADON ZELAK ZIRAN MLP GTF COKEE WILTN TTAIL SNARG RUBKI PEPLA SIKBO RAGIX MEDAV AHPAH GONZZ PONCT KBOS5 hrs4.7 hrs29,583 lbMichael Roth
2020-07-14ASA25KBOS KSEA KBOS LBSTA SILVE SEEDY ENE MSS YOW YXI SSM DLH GFK MOT GGW GEG KSEA6.1 hrs5.8 hrs36,415 lbRyan Syferd